createdAt,value
2022-07-26T00:01:18.911Z,99.90
2022-07-26T00:03:47.402Z,99.90
2022-07-26T00:06:15.561Z,99.90
2022-07-26T00:08:46.995Z,99.90
2022-07-26T00:11:15.856Z,99.90
2022-07-26T00:13:46.185Z,99.90
2022-07-26T00:16:15.738Z,99.90
2022-07-26T00:18:44.038Z,99.90
2022-07-26T00:21:12.300Z,99.90
2022-07-26T00:23:40.614Z,99.90
2022-07-26T00:26:08.972Z,99.90
2022-07-26T00:28:37.211Z,99.90
2022-07-26T00:31:06.786Z,99.90
2022-07-26T00:33:35.110Z,99.90
2022-07-26T00:36:03.229Z,99.90
2022-07-26T00:38:31.365Z,99.90
2022-07-26T00:41:00.415Z,99.90
2022-07-26T00:43:28.701Z,99.90
2022-07-26T00:45:56.827Z,99.90
2022-07-26T00:48:26.537Z,99.90
2022-07-26T00:50:55.747Z,99.90
2022-07-26T00:53:25.208Z,99.90
2022-07-26T00:55:54.393Z,99.90
2022-07-26T00:58:22.576Z,99.90
2022-07-26T01:00:50.887Z,99.90
2022-07-26T01:03:19.136Z,99.90
2022-07-26T01:05:50.844Z,99.90
2022-07-26T01:08:19.010Z,99.90
2022-07-26T01:10:47.091Z,99.90
2022-07-26T01:13:20.745Z,99.90
2022-07-26T01:15:49.186Z,99.90
2022-07-26T01:18:17.450Z,99.90
2022-07-26T01:20:45.971Z,99.90
2022-07-26T01:23:15.593Z,99.90
2022-07-26T01:25:46.041Z,99.90
2022-07-26T01:28:19.777Z,99.90
2022-07-26T01:30:49.024Z,99.90
2022-07-26T01:33:17.384Z,99.90
2022-07-26T01:35:45.537Z,99.90
2022-07-26T01:38:15.089Z,99.90
2022-07-26T01:40:43.231Z,99.90
2022-07-26T01:43:11.368Z,99.90
2022-07-26T01:45:39.634Z,99.90
2022-07-26T01:48:08.572Z,99.90
2022-07-26T01:50:37.116Z,99.90
2022-07-26T01:53:06.366Z,99.90
2022-07-26T01:55:36.332Z,99.90
2022-07-26T01:58:05.165Z,99.90
2022-07-26T02:00:33.544Z,99.90
2022-07-26T02:03:01.788Z,99.90
2022-07-26T02:05:29.928Z,99.90
2022-07-26T02:07:58.441Z,99.90
2022-07-26T02:10:48.694Z,99.90
2022-07-26T02:13:18.600Z,99.90
2022-07-26T02:15:47.091Z,99.90
2022-07-26T02:18:15.294Z,99.90
2022-07-26T02:20:43.422Z,99.90
2022-07-26T02:23:11.638Z,99.90
2022-07-26T02:25:39.901Z,99.90
2022-07-26T02:28:08.016Z,99.90
2022-07-26T02:30:38.261Z,99.90
2022-07-26T02:33:07.561Z,99.90
2022-07-26T02:35:35.641Z,99.90
2022-07-26T02:38:04.822Z,99.90
2022-07-26T02:40:33.447Z,99.90
2022-07-26T02:43:01.974Z,99.90
2022-07-26T02:45:30.317Z,99.90
2022-07-26T02:47:59.918Z,99.90
2022-07-26T02:50:29.601Z,99.90
2022-07-26T02:52:58.133Z,99.90
2022-07-26T02:55:27.648Z,99.90
2022-07-26T02:57:55.905Z,99.90
2022-07-26T03:00:26.086Z,99.90
2022-07-26T03:02:54.723Z,99.90
2022-07-26T03:05:24.801Z,99.90
2022-07-26T03:07:52.887Z,99.90
2022-07-26T03:10:21.015Z,99.90
2022-07-26T03:12:49.086Z,99.90
2022-07-26T03:15:17.141Z,99.90
2022-07-26T03:17:45.320Z,99.90
2022-07-26T03:20:14.539Z,99.90
2022-07-26T03:22:44.466Z,99.90
2022-07-26T03:25:12.609Z,99.90
2022-07-26T03:27:40.712Z,99.90
2022-07-26T03:30:10.301Z,99.90
2022-07-26T03:32:38.560Z,99.90
2022-07-26T03:35:07.830Z,99.90
2022-07-26T03:37:45.164Z,99.90
2022-07-26T03:40:16.767Z,99.90
2022-07-26T03:42:45.501Z,99.90
2022-07-26T03:45:14.514Z,99.90
2022-07-26T03:47:42.734Z,99.90
2022-07-26T03:50:13.706Z,99.90
2022-07-26T03:52:42.165Z,99.90
2022-07-26T03:55:29.142Z,99.90
2022-07-26T03:57:59.083Z,99.90
2022-07-26T04:00:27.722Z,99.90
2022-07-26T04:02:55.965Z,99.90
2022-07-26T04:05:24.104Z,99.90
2022-07-26T04:07:54.397Z,99.90
2022-07-26T04:10:24.834Z,99.90
2022-07-26T04:12:52.968Z,99.90
2022-07-26T04:15:22.717Z,99.90
2022-07-26T04:17:50.853Z,99.90
2022-07-26T04:20:19.213Z,99.90
2022-07-26T04:22:47.364Z,99.90
2022-07-26T04:25:15.474Z,99.90
2022-07-26T04:27:43.631Z,99.90
2022-07-26T04:30:15.521Z,99.90
2022-07-26T04:32:46.670Z,99.90
2022-07-26T04:35:16.270Z,99.90
2022-07-26T04:37:45.121Z,99.90
2022-07-26T04:40:17.526Z,99.90
2022-07-26T04:42:50.434Z,99.90
2022-07-26T04:45:18.736Z,99.90
2022-07-26T04:47:50.815Z,99.90
2022-07-26T04:50:19.789Z,99.90
2022-07-26T04:52:48.341Z,99.90
2022-07-26T04:55:17.072Z,99.90
2022-07-26T04:57:47.331Z,99.90
2022-07-26T05:00:21.886Z,99.90
2022-07-26T05:02:53.548Z,99.90
2022-07-26T05:05:22.436Z,99.90
2022-07-26T05:07:52.632Z,99.90
2022-07-26T05:10:22.640Z,99.90
2022-07-26T05:12:51.156Z,99.90
2022-07-26T05:15:19.264Z,99.90
2022-07-26T05:17:48.257Z,99.90
2022-07-26T05:20:18.320Z,99.90
2022-07-26T05:22:47.088Z,99.90
2022-07-26T05:25:15.273Z,99.90
2022-07-26T05:27:43.402Z,99.90
2022-07-26T05:30:12.133Z,99.90
2022-07-26T05:32:40.546Z,99.90
2022-07-26T05:35:09.646Z,99.90
2022-07-26T05:37:39.681Z,99.90
2022-07-26T05:40:08.946Z,99.90
2022-07-26T05:42:37.192Z,99.90
2022-07-26T05:45:06.579Z,99.90
2022-07-26T05:47:34.731Z,99.90
2022-07-26T05:50:02.867Z,99.90
2022-07-26T05:52:31.324Z,99.90
2022-07-26T05:55:00.893Z,99.90
2022-07-26T05:57:29.008Z,99.90
2022-07-26T05:59:57.190Z,99.90
2022-07-26T06:02:25.432Z,99.90
2022-07-26T06:04:53.649Z,99.90
2022-07-26T06:07:21.736Z,99.90
2022-07-26T06:09:49.828Z,99.90
2022-07-26T06:12:19.466Z,99.90
2022-07-26T06:14:47.504Z,99.90
2022-07-26T06:17:15.969Z,99.90
2022-07-26T06:19:47.511Z,99.90
2022-07-26T06:22:16.018Z,99.90
2022-07-26T06:24:44.127Z,99.90
2022-07-26T06:27:12.394Z,99.90
2022-07-26T06:29:41.972Z,99.90
2022-07-26T06:32:10.210Z,99.90
2022-07-26T06:34:38.422Z,99.90
2022-07-26T06:37:06.609Z,99.90
2022-07-26T06:39:34.702Z,99.80
2022-07-26T06:42:02.801Z,99.70
2022-07-26T06:44:30.880Z,99.90
2022-07-26T06:47:00.390Z,99.80
2022-07-26T06:49:28.579Z,99.80
2022-07-26T06:51:57.933Z,99.60
2022-07-26T06:54:26.106Z,99.30
2022-07-26T06:56:54.227Z,99.40
2022-07-26T06:59:22.330Z,99.40
2022-07-26T07:01:58.209Z,99.20
2022-07-26T07:04:30.212Z,99.10
2022-07-26T07:07:02.753Z,99.00
2022-07-26T07:09:34.588Z,98.70
2022-07-26T07:12:09.980Z,98.80
2022-07-26T07:14:39.065Z,98.70
2022-07-26T07:17:10.372Z,98.80
2022-07-26T07:19:42.964Z,98.90
2022-07-26T07:22:12.249Z,99.00
2022-07-26T07:24:41.208Z,98.80
2022-07-26T07:27:10.559Z,98.70
2022-07-26T07:29:41.369Z,98.60
2022-07-26T07:32:15.829Z,98.60
2022-07-26T07:34:48.239Z,98.10
2022-07-26T07:37:16.576Z,98.00
2022-07-26T07:39:44.777Z,97.90
2022-07-26T07:42:18.958Z,98.00
2022-07-26T07:44:47.494Z,98.30
2022-07-26T07:47:15.765Z,98.30
2022-07-26T07:49:44.094Z,97.70
2022-07-26T07:52:13.551Z,97.10
2022-07-26T07:54:42.158Z,97.10
2022-07-26T07:57:10.626Z,97.10
2022-07-26T07:59:39.180Z,97.10
2022-07-26T08:02:08.214Z,97.20
2022-07-26T08:04:36.555Z,97.20
2022-07-26T08:07:04.790Z,97.30
2022-07-26T08:09:34.390Z,97.10
2022-07-26T08:12:02.581Z,96.50
2022-07-26T08:14:30.766Z,96.30
2022-07-26T08:16:59.009Z,96.10
2022-07-26T08:19:29.285Z,95.80
2022-07-26T08:22:10.698Z,95.90
2022-07-26T08:24:40.710Z,95.60
2022-07-26T08:27:08.864Z,95.10
2022-07-26T08:29:37.167Z,94.90
2022-07-26T08:32:06.077Z,94.80
2022-07-26T08:34:34.488Z,94.70
2022-07-26T08:37:18.380Z,95.00
2022-07-26T08:39:48.933Z,95.20
2022-07-26T08:42:17.689Z,95.50
2022-07-26T08:44:51.945Z,95.80
2022-07-26T08:47:37.980Z,95.60
2022-07-26T08:50:09.615Z,95.50
2022-07-26T08:52:40.952Z,95.30
2022-07-26T08:55:12.076Z,95.40
2022-07-26T08:57:40.175Z,95.30
2022-07-26T09:00:20.032Z,95.30
2022-07-26T09:02:49.680Z,95.10
2022-07-26T09:05:20.808Z,95.00
2022-07-26T09:07:49.071Z,95.00
2022-07-26T09:10:18.849Z,94.80
2022-07-26T09:12:47.113Z,94.40
2022-07-26T09:15:23.828Z,94.60
2022-07-26T09:17:54.334Z,94.70
2022-07-26T09:20:25.957Z,95.10
2022-07-26T09:23:04.489Z,94.90
2022-07-26T09:25:37.277Z,94.50
2022-07-26T09:28:22.044Z,94.40
2022-07-26T09:30:53.480Z,94.10
2022-07-26T09:33:21.842Z,93.90
2022-07-26T09:36:02.666Z,93.50
2022-07-26T09:38:41.021Z,93.30
2022-07-26T09:41:20.725Z,93.20
2022-07-26T09:43:53.465Z,93.10
2022-07-26T09:46:22.586Z,92.50
2022-07-26T09:51:41.199Z,92.90
2022-07-26T09:54:11.124Z,93.10
2022-07-26T09:56:49.395Z,93.60
2022-07-26T09:59:19.051Z,93.60
2022-07-26T10:01:48.303Z,92.90
2022-07-26T10:04:16.967Z,92.40
2022-07-26T10:06:45.366Z,92.00
2022-07-26T10:09:14.511Z,91.60
2022-07-26T10:11:46.056Z,91.20
2022-07-26T10:14:38.787Z,90.70
2022-07-26T10:17:42.878Z,90.60
2022-07-26T10:20:17.319Z,90.60
2022-07-26T10:22:52.778Z,91.00
2022-07-26T10:25:47.765Z,91.40
2022-07-26T10:28:27.095Z,91.40
2022-07-26T10:31:29.473Z,91.40
2022-07-26T10:33:59.727Z,91.10
2022-07-26T10:36:30.213Z,90.80
2022-07-26T10:39:08.502Z,90.90
2022-07-26T10:41:41.962Z,90.70
2022-07-26T10:44:21.877Z,90.20
2022-07-26T10:47:15.777Z,90.20
2022-07-26T10:49:56.121Z,90.20
2022-07-26T10:52:27.390Z,90.00
2022-07-26T10:55:08.442Z,89.90
2022-07-26T10:57:38.691Z,89.90
2022-07-26T11:00:13.245Z,90.00
2022-07-26T11:02:44.125Z,90.20
2022-07-26T11:05:14.319Z,90.30
2022-07-26T11:08:01.433Z,90.50
2022-07-26T11:10:32.200Z,90.60
2022-07-26T11:13:04.217Z,90.50
2022-07-26T11:15:32.629Z,90.20
2022-07-26T11:18:16.558Z,89.90
2022-07-26T11:20:46.927Z,89.30
2022-07-26T11:23:23.337Z,89.70
2022-07-26T11:26:11.359Z,89.80
2022-07-26T11:28:57.422Z,88.90
2022-07-26T11:31:51.405Z,88.20
2022-07-26T11:34:27.371Z,86.90
2022-07-26T11:36:57.508Z,87.40
2022-07-26T11:39:26.949Z,87.90
2022-07-26T11:42:00.021Z,88.00
2022-07-26T11:44:29.407Z,88.50
2022-07-26T11:46:58.777Z,88.50
2022-07-26T11:52:25.129Z,88.40
2022-07-26T11:54:55.816Z,88.50
2022-07-26T11:57:30.101Z,89.00
2022-07-26T11:59:59.658Z,88.40
2022-07-26T12:02:29.067Z,88.80
2022-07-26T12:05:18.838Z,88.70
2022-07-26T12:07:59.230Z,88.60
2022-07-26T12:10:28.095Z,88.10
2022-07-26T12:13:12.038Z,87.70
2022-07-26T12:15:48.870Z,86.20
2022-07-26T12:18:24.922Z,85.50
2022-07-26T12:21:06.121Z,84.30
2022-07-26T12:23:43.449Z,84.40
2022-07-26T12:26:22.345Z,84.70
2022-07-26T12:28:50.443Z,86.70
2022-07-26T12:31:26.402Z,88.30
2022-07-26T12:33:54.833Z,89.70
2022-07-26T12:36:27.424Z,90.50
2022-07-26T12:38:57.679Z,90.90
2022-07-26T12:41:33.756Z,91.40
2022-07-26T12:44:01.793Z,91.80
2022-07-26T12:46:33.545Z,92.40
2022-07-26T12:49:01.927Z,93.50
2022-07-26T12:51:31.813Z,94.20
2022-07-26T12:53:59.938Z,95.00
2022-07-26T12:56:28.162Z,95.50
2022-07-26T12:59:01.126Z,96.10
2022-07-26T13:01:30.354Z,96.60
2022-07-26T13:03:58.655Z,97.00
2022-07-26T13:06:26.777Z,97.30
2022-07-26T13:08:56.687Z,97.70
2022-07-26T13:11:25.009Z,97.60
2022-07-26T13:13:53.165Z,97.60
2022-07-26T13:16:21.308Z,97.50
2022-07-26T13:18:49.420Z,97.30
2022-07-26T13:21:17.734Z,97.20
2022-07-26T13:23:45.889Z,97.20
2022-07-26T13:26:15.426Z,97.40
2022-07-26T13:28:44.518Z,97.60
2022-07-26T13:31:17.924Z,97.80
2022-07-26T13:33:46.170Z,97.80
2022-07-26T13:36:14.398Z,97.80
2022-07-26T13:38:43.052Z,97.60
2022-07-26T13:41:11.282Z,97.60
2022-07-26T13:43:40.822Z,97.60
2022-07-26T13:46:09.142Z,97.60
2022-07-26T13:48:37.358Z,97.90
2022-07-26T13:51:06.108Z,97.50
2022-07-26T13:53:34.486Z,97.40
2022-07-26T13:56:02.586Z,97.30
2022-07-26T13:58:30.730Z,97.10
2022-07-26T14:01:00.479Z,96.90
2022-07-26T14:03:32.091Z,97.00
2022-07-26T14:06:03.154Z,97.00
2022-07-26T14:08:31.282Z,96.90
2022-07-26T14:10:59.382Z,96.70
2022-07-26T14:13:27.449Z,96.70
2022-07-26T14:15:55.529Z,96.80
2022-07-26T14:18:25.017Z,96.50
2022-07-26T14:20:53.094Z,96.80
2022-07-26T14:23:21.179Z,96.80
2022-07-26T14:25:49.265Z,96.70
2022-07-26T14:28:17.335Z,96.80
2022-07-26T14:30:45.433Z,96.70
2022-07-26T14:33:13.604Z,96.20
2022-07-26T14:35:44.051Z,96.10
2022-07-26T14:38:12.480Z,96.00
2022-07-26T14:40:42.162Z,95.90
2022-07-26T14:43:10.290Z,95.90
2022-07-26T14:45:38.389Z,95.80
2022-07-26T14:48:07.096Z,95.90
2022-07-26T14:50:53.359Z,96.10
2022-07-26T14:53:25.981Z,96.50
2022-07-26T14:55:54.110Z,96.70
2022-07-26T14:58:22.240Z,96.90
2022-07-26T15:00:52.069Z,96.90
2022-07-26T15:03:20.221Z,96.40
2022-07-26T15:05:48.507Z,95.50
2022-07-26T15:08:16.601Z,94.90
2022-07-26T15:10:46.169Z,95.00
2022-07-26T15:13:15.044Z,94.80
2022-07-26T15:15:43.618Z,94.70
2022-07-26T15:18:11.780Z,94.80
2022-07-26T15:20:40.605Z,94.70
2022-07-26T15:23:09.270Z,95.30
2022-07-26T15:25:39.955Z,95.80
2022-07-26T15:28:09.700Z,95.20
2022-07-26T15:30:38.351Z,94.90
2022-07-26T15:33:06.458Z,94.60
2022-07-26T15:35:35.317Z,94.30
2022-07-26T15:38:04.133Z,94.30
2022-07-26T15:40:32.278Z,94.40
2022-07-26T15:43:00.556Z,94.50
2022-07-26T15:45:31.143Z,94.70
2022-07-26T15:48:13.818Z,94.80
2022-07-26T15:50:45.108Z,95.10
2022-07-26T15:53:16.910Z,94.80
2022-07-26T15:55:45.025Z,94.00
2022-07-26T15:58:14.125Z,94.10
2022-07-26T16:00:43.996Z,93.00
2022-07-26T16:03:12.984Z,92.30
2022-07-26T16:05:41.146Z,92.10
2022-07-26T16:08:09.221Z,92.30
2022-07-26T16:10:38.021Z,92.30
2022-07-26T16:13:06.146Z,90.90
2022-07-26T16:15:34.325Z,90.70
2022-07-26T16:18:06.489Z,91.20
2022-07-26T16:20:34.953Z,91.30
2022-07-26T16:23:03.132Z,91.70
2022-07-26T16:25:31.233Z,91.70
2022-07-26T16:27:59.662Z,91.50
2022-07-26T16:30:27.966Z,90.90
2022-07-26T16:32:56.053Z,90.70
2022-07-26T16:35:25.584Z,90.20
2022-07-26T16:37:53.727Z,88.10
2022-07-26T16:40:22.208Z,86.90
2022-07-26T16:42:50.319Z,87.00
2022-07-26T16:45:18.383Z,86.50
2022-07-26T16:47:46.456Z,85.30
2022-07-26T16:50:14.755Z,85.10
2022-07-26T16:52:57.221Z,85.00
2022-07-26T16:55:25.499Z,85.90
2022-07-26T16:57:53.807Z,85.30
2022-07-26T17:00:22.351Z,85.50
2022-07-26T17:02:50.801Z,86.70
2022-07-26T17:05:18.914Z,87.10
2022-07-26T17:07:47.114Z,85.70
2022-07-26T17:10:16.638Z,84.40
2022-07-26T17:12:45.583Z,84.80
2022-07-26T17:15:15.526Z,84.40
2022-07-26T17:17:48.384Z,84.90
2022-07-26T17:20:16.911Z,86.00
2022-07-26T17:22:45.008Z,85.50
2022-07-26T17:25:13.233Z,85.60
2022-07-26T17:27:42.766Z,84.80
2022-07-26T17:30:12.115Z,83.20
2022-07-26T17:32:40.342Z,81.80
2022-07-26T17:35:09.912Z,80.40
2022-07-26T17:37:38.265Z,80.70
2022-07-26T17:40:09.914Z,80.20
2022-07-26T17:42:38.065Z,79.80
2022-07-26T17:45:08.805Z,79.90
2022-07-26T17:47:36.871Z,79.90
2022-07-26T17:50:35.338Z,80.60
2022-07-26T17:52:55.973Z,80.70
2022-07-26T17:55:24.658Z,80.70
2022-07-26T17:57:53.355Z,80.90
2022-07-26T18:00:28.599Z,80.60
2022-07-26T18:02:57.373Z,80.50
2022-07-26T18:05:32.574Z,80.60
2022-07-26T18:08:03.520Z,80.10
2022-07-26T18:10:31.694Z,81.00
2022-07-26T18:12:59.787Z,81.50
2022-07-26T18:15:29.354Z,81.00
2022-07-26T18:17:57.469Z,81.30
2022-07-26T18:20:25.570Z,81.00
2022-07-26T18:22:54.903Z,80.40
2022-07-26T18:25:23.116Z,79.20
2022-07-26T18:27:51.434Z,79.00
2022-07-26T18:30:19.489Z,78.70
2022-07-26T18:32:48.997Z,78.80
2022-07-26T18:35:17.081Z,79.00
2022-07-26T18:37:46.621Z,79.00
2022-07-26T18:40:14.796Z,79.40
2022-07-26T18:42:42.900Z,79.60
2022-07-26T18:45:11.905Z,79.80
2022-07-26T18:47:39.970Z,79.80
2022-07-26T18:50:11.276Z,80.00
2022-07-26T18:52:39.774Z,80.20
2022-07-26T18:55:09.774Z,80.40
2022-07-26T18:57:38.568Z,80.80
2022-07-26T19:00:08.166Z,80.90
2022-07-26T19:02:36.294Z,80.70
2022-07-26T19:05:05.043Z,80.70
2022-07-26T19:07:35.889Z,80.90
2022-07-26T19:10:04.331Z,81.00
2022-07-26T19:12:33.174Z,81.10
2022-07-26T19:15:01.287Z,81.10
2022-07-26T19:17:31.713Z,81.40
2022-07-26T19:20:01.401Z,81.50
2022-07-26T19:22:30.465Z,81.60
2022-07-26T19:25:00.005Z,81.70
2022-07-26T19:27:28.846Z,81.90
2022-07-26T19:29:57.589Z,82.00
2022-07-26T19:32:29.129Z,82.00
2022-07-26T19:35:01.389Z,82.10
2022-07-26T19:37:29.510Z,82.30
2022-07-26T19:40:00.939Z,82.30
2022-07-26T19:42:30.340Z,82.40
2022-07-26T19:44:58.424Z,82.40
2022-07-26T19:47:26.748Z,82.50
2022-07-26T19:49:54.785Z,82.70
2022-07-26T19:52:22.898Z,82.60
2022-07-26T19:54:51.649Z,82.50
2022-07-26T19:57:21.517Z,82.40
2022-07-26T19:59:49.598Z,82.50
2022-07-26T20:02:18.217Z,82.50
2022-07-26T20:04:46.630Z,82.40
2022-07-26T20:07:19.311Z,82.40
2022-07-26T20:09:47.857Z,82.30
2022-07-26T20:12:16.009Z,82.30
2022-07-26T20:14:45.558Z,83.00
2022-07-26T20:17:14.187Z,82.90
2022-07-26T20:19:42.433Z,82.00
2022-07-26T20:22:10.727Z,82.00
2022-07-26T20:24:39.157Z,81.90
2022-07-26T20:27:07.741Z,81.80
2022-07-26T20:29:36.011Z,81.80
2022-07-26T20:32:05.980Z,81.80
2022-07-26T20:34:35.022Z,81.80
2022-07-26T20:37:03.436Z,81.80
2022-07-26T20:39:31.500Z,81.70
2022-07-26T20:41:59.582Z,81.80
2022-07-26T20:44:29.652Z,81.90
2022-07-26T20:46:57.777Z,81.90
2022-07-26T20:49:27.361Z,82.00
2022-07-26T20:51:55.603Z,82.00
2022-07-26T20:54:23.713Z,81.80
2022-07-26T20:56:51.751Z,82.00
2022-07-26T20:59:20.098Z,82.10
2022-07-26T21:01:48.253Z,82.30
2022-07-26T21:04:16.555Z,82.20
2022-07-26T21:06:46.113Z,82.80
2022-07-26T21:09:15.116Z,82.20
2022-07-26T21:11:43.357Z,82.30
2022-07-26T21:14:11.468Z,82.30
2022-07-26T21:16:39.732Z,82.40
2022-07-26T21:19:08.053Z,82.30
2022-07-26T21:21:38.109Z,82.40
2022-07-26T21:24:08.809Z,82.40
2022-07-26T21:26:36.893Z,82.40
2022-07-26T21:29:05.407Z,82.30
2022-07-26T21:31:33.542Z,82.40
2022-07-26T21:34:01.643Z,83.20
2022-07-26T21:36:29.792Z,82.50
2022-07-26T21:38:59.309Z,82.50
2022-07-26T21:41:28.851Z,82.70
2022-07-26T21:43:56.954Z,82.70
2022-07-26T21:46:25.172Z,82.60
2022-07-26T21:48:53.471Z,82.60
2022-07-26T21:51:21.558Z,82.70
2022-07-26T21:53:49.674Z,82.70
2022-07-26T21:56:17.763Z,82.70
2022-07-26T21:58:47.357Z,82.70
2022-07-26T22:01:15.703Z,82.60
2022-07-26T22:03:44.298Z,82.30
2022-07-26T22:06:13.271Z,82.10
2022-07-26T22:08:41.491Z,82.30
2022-07-26T22:11:09.681Z,82.10
2022-07-26T22:13:37.852Z,82.20
2022-07-26T22:16:08.182Z,82.20
2022-07-26T22:18:36.549Z,82.00
2022-07-26T22:21:05.156Z,82.00
2022-07-26T22:23:33.793Z,81.80
2022-07-26T22:26:03.301Z,81.80
2022-07-26T22:28:32.110Z,81.80
2022-07-26T22:31:00.629Z,81.90
2022-07-26T22:33:30.188Z,81.80
2022-07-26T22:35:58.250Z,81.80
2022-07-26T22:38:26.316Z,81.80
2022-07-26T22:40:54.436Z,81.80
2022-07-26T22:43:22.614Z,82.00
2022-07-26T22:45:51.343Z,82.00
2022-07-26T22:48:19.529Z,82.10
2022-07-26T22:50:49.070Z,82.10
2022-07-26T22:53:17.470Z,82.20
2022-07-26T22:55:45.725Z,82.40
2022-07-26T22:58:13.958Z,82.40
2022-07-26T23:00:42.386Z,82.70
2022-07-26T23:03:19.855Z,82.80
2022-07-26T23:05:52.321Z,82.80
2022-07-26T23:08:45.804Z,82.60
2022-07-26T23:11:09.150Z,82.50
2022-07-26T23:13:37.257Z,82.80
2022-07-26T23:16:05.859Z,83.00
2022-07-26T23:18:35.279Z,83.10
2022-07-26T23:21:04.921Z,83.00
2022-07-26T23:23:33.145Z,83.10
2022-07-26T23:26:01.664Z,83.20
2022-07-26T23:28:37.094Z,83.10
2022-07-26T23:31:09.115Z,83.00
2022-07-26T23:33:51.384Z,83.20
2022-07-26T23:36:24.860Z,83.50
2022-07-26T23:38:53.320Z,83.50
2022-07-26T23:41:21.526Z,83.50
2022-07-26T23:43:49.751Z,83.70
2022-07-26T23:46:18.409Z,83.70
2022-07-26T23:48:46.838Z,83.80
2022-07-26T23:51:15.320Z,83.80
2022-07-26T23:53:44.769Z,83.80
2022-07-26T23:56:13.528Z,83.90
2022-07-26T23:58:41.584Z,83.70
